createdAt,value
2019-04-30T19:41:10.791Z,9.43
2019-04-30T19:41:46.618Z,8.90
2019-04-30T19:42:22.557Z,9.20
2019-04-30T19:42:58.495Z,9.98
2019-04-30T19:43:34.428Z,9.20
2019-04-30T19:44:10.404Z,9.95
2019-04-30T19:44:56.074Z,17.57
2019-04-30T19:45:24.290Z,19.45
2019-04-30T19:46:00.754Z,16.50
2019-04-30T19:46:36.865Z,16.90
2019-04-30T19:47:12.898Z,18.45
2019-04-30T19:47:49.094Z,18.55
2019-04-30T19:48:26.116Z,20.92
2019-04-30T19:49:02.172Z,19.82
2019-04-30T19:49:40.420Z,20.45
2019-04-30T19:50:19.139Z,19.95
2019-04-30T19:50:55.326Z,21.37
2019-04-30T19:51:31.355Z,23.80
2019-04-30T19:52:09.522Z,22.25
2019-04-30T19:52:45.150Z,19.65
2019-04-30T19:53:22.325Z,21.65
2019-04-30T19:53:59.940Z,21.82
2019-04-30T19:54:35.989Z,20.85
2019-04-30T19:55:12.039Z,21.35
2019-04-30T19:55:49.236Z,21.25
2019-04-30T19:56:25.336Z,21.02
2019-04-30T19:57:01.361Z,19.82
2019-04-30T19:57:39.886Z,21.05
2019-04-30T19:58:26.096Z,19.65
2019-04-30T19:59:01.980Z,18.95
2019-04-30T19:59:32.680Z,20.72
2019-04-30T20:00:09.284Z,21.00
2019-04-30T20:00:45.505Z,20.80
2019-04-30T20:01:21.638Z,20.43
2019-04-30T20:01:59.511Z,17.60
2019-04-30T20:02:35.668Z,19.05
2019-04-30T20:03:12.124Z,19.23
2019-04-30T20:03:48.455Z,19.48
2019-04-30T20:04:33.314Z,19.50
2019-04-30T20:05:02.219Z,20.35
2019-04-30T20:05:39.402Z,19.23
2019-04-30T20:06:16.636Z,19.73
2019-04-30T20:06:52.696Z,19.77
2019-04-30T20:07:29.186Z,20.27
2019-04-30T20:08:06.527Z,19.50
2019-04-30T20:08:42.596Z,20.23
2019-04-30T20:09:19.383Z,20.97
2019-04-30T20:10:01.116Z,21.57
2019-04-30T20:10:33.247Z,20.97
2019-04-30T20:11:09.303Z,21.55
2019-04-30T20:11:45.757Z,20.95
2019-04-30T20:12:21.893Z,21.45
2019-04-30T20:12:58.765Z,22.30
2019-04-30T20:13:37.290Z,22.87
2019-04-30T20:14:12.667Z,23.12
2019-04-30T20:14:49.597Z,22.48
2019-04-30T20:15:25.717Z,23.22
2019-04-30T20:16:02.170Z,22.62
2019-04-30T20:16:40.141Z,21.87
2019-04-30T20:17:15.938Z,21.70
2019-04-30T20:17:51.958Z,21.15
2019-04-30T20:18:29.223Z,20.60
2019-04-30T20:19:05.298Z,20.12
2019-04-30T20:19:41.407Z,20.65
2019-04-30T20:20:18.912Z,21.73
2019-04-30T20:21:00.931Z,21.15
2019-04-30T20:21:45.692Z,21.77
2019-04-30T20:22:12.599Z,21.15
2019-04-30T20:22:48.710Z,21.42
2019-04-30T20:23:24.739Z,20.50
2019-04-30T20:24:00.789Z,20.55
2019-04-30T20:24:36.936Z,22.00
2019-04-30T20:25:13.917Z,31.42
2019-04-30T20:25:50.039Z,35.23
2019-04-30T20:26:26.068Z,27.22
2019-04-30T20:27:07.054Z,22.05
2019-04-30T20:27:39.838Z,22.30
2019-04-30T20:28:15.870Z,21.93
2019-04-30T20:28:52.224Z,22.90
2019-04-30T20:29:29.850Z,22.30
2019-04-30T20:30:09.449Z,24.45
2019-04-30T20:30:45.345Z,22.70
2019-04-30T20:31:21.378Z,23.55
2019-04-30T20:31:58.937Z,23.25
2019-04-30T20:32:36.669Z,24.23
2019-04-30T20:33:13.855Z,23.62
2019-04-30T20:33:50.196Z,23.75
2019-04-30T20:34:26.230Z,23.52
2019-04-30T20:35:02.267Z,22.48
2019-04-30T20:35:39.002Z,21.97
2019-04-30T20:36:16.114Z,23.83
2019-04-30T20:36:52.145Z,22.17
2019-04-30T20:37:29.492Z,23.67
2019-04-30T20:38:23.569Z,22.32
2019-04-30T20:39:01.241Z,22.17
2019-04-30T20:39:40.515Z,22.30
2019-04-30T20:40:18.589Z,21.30
2019-04-30T20:40:59.992Z,22.05
2019-04-30T20:41:33.269Z,22.42
2019-04-30T20:42:09.615Z,21.17
2019-04-30T20:42:45.881Z,21.55
2019-04-30T20:43:22.882Z,22.40
2019-04-30T20:43:58.910Z,21.40
2019-04-30T20:44:34.950Z,21.97
2019-04-30T20:45:11.044Z,22.48
2019-04-30T20:45:47.219Z,21.00
2019-04-30T20:46:32.591Z,22.62
2019-04-30T20:47:01.501Z,21.68
2019-04-30T20:47:39.299Z,22.48
2019-04-30T20:48:15.308Z,22.73
2019-04-30T20:48:51.391Z,22.90
2019-04-30T20:49:29.104Z,21.00
2019-04-30T20:50:05.264Z,22.32
2019-04-30T20:50:41.412Z,22.95
2019-04-30T20:51:19.584Z,23.57
2019-04-30T20:51:56.138Z,22.40
2019-04-30T20:52:32.440Z,20.90
2019-04-30T20:53:08.909Z,20.60
2019-04-30T20:53:44.958Z,21.30
2019-04-30T20:54:21.062Z,20.25
2019-04-30T20:54:57.619Z,19.10
2019-04-30T20:55:34.060Z,19.85
2019-04-30T20:56:10.090Z,21.52
2019-04-30T20:56:46.119Z,19.62
2019-04-30T20:57:22.156Z,19.12
2019-04-30T20:57:59.475Z,20.08
2019-04-30T20:58:35.626Z,19.92
2019-04-30T20:59:12.807Z,20.43
2019-04-30T20:59:48.844Z,21.10
2019-04-30T21:00:25.895Z,19.30
2019-04-30T21:01:06.283Z,19.05
2019-04-30T21:01:39.851Z,19.27
2019-04-30T21:02:15.894Z,18.82
2019-04-30T21:02:51.914Z,18.75
2019-04-30T21:03:29.669Z,19.77
2019-04-30T21:04:06.091Z,19.20
2019-04-30T21:04:43.562Z,19.62
2019-04-30T21:05:19.892Z,20.57
2019-04-30T21:05:56.059Z,19.30
2019-04-30T21:06:33.437Z,20.55
2019-04-30T21:07:09.510Z,19.82
2019-04-30T21:07:45.624Z,20.52
2019-04-30T21:08:22.184Z,19.02
2019-04-30T21:08:58.574Z,19.05
2019-04-30T21:09:34.630Z,19.98
2019-04-30T21:10:10.789Z,20.10
2019-04-30T21:10:46.865Z,21.02
2019-04-30T21:11:22.987Z,19.85
2019-04-30T21:11:59.173Z,18.75
2019-04-30T21:12:35.429Z,20.92
2019-04-30T21:13:12.044Z,20.80
2019-04-30T21:13:49.127Z,19.30
2019-04-30T21:14:25.415Z,19.62
2019-04-30T21:15:01.457Z,20.62
2019-04-30T21:15:39.531Z,19.75
2019-04-30T21:16:15.689Z,20.45
2019-04-30T21:16:52.750Z,18.75
2019-04-30T21:17:28.885Z,20.25
2019-04-30T21:18:04.940Z,20.88
2019-04-30T21:18:41.245Z,18.85
2019-04-30T21:19:17.384Z,19.98
2019-04-30T21:19:53.699Z,20.43
2019-04-30T21:20:29.925Z,25.08
2019-04-30T21:21:06.102Z,22.20
2019-04-30T21:21:42.317Z,21.68
2019-04-30T21:22:19.455Z,19.73
2019-04-30T21:22:56.244Z,19.75
2019-04-30T21:23:32.409Z,20.57
2019-04-30T21:24:08.676Z,24.27
2019-04-30T21:24:45.923Z,20.52
2019-04-30T21:25:23.233Z,40.78
2019-04-30T21:25:59.695Z,21.87
2019-04-30T21:26:35.868Z,19.25
2019-04-30T21:27:12.102Z,20.70
2019-04-30T21:27:50.027Z,19.75
2019-04-30T21:28:26.455Z,19.12
2019-04-30T21:29:11.069Z,20.35
2019-04-30T21:29:42.500Z,19.07
2019-04-30T21:30:18.690Z,19.32
2019-04-30T21:30:54.849Z,19.50
2019-04-30T21:31:35.364Z,20.20
2019-04-30T21:32:29.341Z,19.23
2019-04-30T21:33:07.056Z,19.75
2019-04-30T21:33:44.757Z,19.65
2019-04-30T21:34:29.398Z,20.00
2019-04-30T21:35:25.698Z,21.30
2019-04-30T21:36:03.452Z,19.95
2019-04-30T21:36:39.621Z,20.25
2019-04-30T21:37:15.622Z,20.08
2019-04-30T21:37:51.770Z,19.80
2019-04-30T21:38:29.242Z,20.17
2019-04-30T21:39:08.836Z,20.88
2019-04-30T21:39:44.772Z,20.37
2019-04-30T21:40:20.798Z,22.05
2019-04-30T21:40:58.748Z,22.70
2019-04-30T21:41:35.518Z,20.57
2019-04-30T21:42:11.760Z,21.70
2019-04-30T21:42:48.216Z,22.17
2019-04-30T21:43:27.115Z,22.70
2019-04-30T21:44:03.154Z,23.07
2019-04-30T21:44:39.303Z,24.60
2019-04-30T21:45:15.377Z,27.42
2019-04-30T21:45:51.444Z,25.62
2019-04-30T21:46:29.275Z,25.90
2019-04-30T21:47:05.957Z,27.35
2019-04-30T21:47:42.092Z,25.85
2019-04-30T21:48:19.127Z,25.65
2019-04-30T21:48:55.320Z,28.75
2019-04-30T21:49:31.365Z,28.02
2019-04-30T21:50:10.067Z,27.67
2019-04-30T21:50:45.210Z,27.13
2019-04-30T21:51:21.444Z,27.62
2019-04-30T21:51:57.542Z,28.25
2019-04-30T21:52:33.684Z,27.90
2019-04-30T21:53:09.988Z,26.80
2019-04-30T21:53:46.033Z,27.45
2019-04-30T21:54:22.067Z,28.35
2019-04-30T21:54:59.602Z,27.17
2019-04-30T21:55:36.731Z,29.15
2019-04-30T21:56:13.069Z,31.07
2019-04-30T21:56:49.090Z,31.65
2019-04-30T21:57:26.138Z,29.82
2019-04-30T21:58:02.187Z,29.23
2019-04-30T21:58:39.261Z,28.15
2019-04-30T21:59:24.240Z,28.45
2019-04-30T21:59:53.179Z,29.67
2019-04-30T22:00:32.023Z,29.77
2019-04-30T22:01:13.719Z,29.63
2019-04-30T22:02:25.694Z,27.48
2019-04-30T22:03:01.931Z,28.05
2019-04-30T22:03:39.425Z,28.65
2019-04-30T22:04:15.797Z,27.48
2019-04-30T22:04:52.866Z,28.32
2019-04-30T22:05:28.886Z,27.77
2019-04-30T22:06:04.901Z,29.30
2019-04-30T22:06:41.025Z,31.00
2019-04-30T22:07:19.361Z,28.65
2019-04-30T22:07:54.861Z,28.25
2019-04-30T22:08:31.081Z,27.20
2019-04-30T22:09:09.764Z,28.77
2019-04-30T22:09:47.676Z,27.05
2019-04-30T22:10:23.713Z,26.25
2019-04-30T22:11:00.241Z,27.20
2019-04-30T22:11:36.281Z,28.40
2019-04-30T22:12:12.320Z,27.60
2019-04-30T22:12:48.944Z,27.27
2019-04-30T22:13:25.486Z,28.00
2019-04-30T22:14:01.779Z,25.68
2019-04-30T22:14:37.807Z,25.77
2019-04-30T22:15:14.620Z,25.75
2019-04-30T22:15:50.658Z,26.23
2019-04-30T22:16:26.758Z,25.35
2019-04-30T22:17:02.885Z,25.35
2019-04-30T22:17:39.244Z,26.23
2019-04-30T22:18:15.324Z,25.25
2019-04-30T22:18:51.362Z,25.10
2019-04-30T22:19:27.432Z,26.57
2019-04-30T22:20:03.483Z,26.07
2019-04-30T22:20:39.506Z,25.92
2019-04-30T22:21:15.604Z,25.72
2019-04-30T22:21:51.958Z,25.50
2019-04-30T22:22:29.207Z,25.30
2019-04-30T22:23:05.220Z,25.85
2019-04-30T22:23:41.265Z,26.15
2019-04-30T22:24:17.294Z,26.37
2019-04-30T22:24:53.421Z,24.57
2019-04-30T22:25:29.471Z,26.70
2019-04-30T22:26:05.607Z,25.65
2019-04-30T22:26:41.874Z,25.32
2019-04-30T22:27:17.906Z,25.02
2019-04-30T22:27:53.960Z,26.17
2019-04-30T22:28:29.998Z,23.77
2019-04-30T22:29:09.213Z,24.05
2019-04-30T22:29:45.370Z,24.57
2019-04-30T22:30:21.504Z,25.43
2019-04-30T22:30:58.595Z,24.02
2019-04-30T22:31:34.647Z,23.75
2019-04-30T22:32:10.657Z,25.00
2019-04-30T22:32:46.691Z,25.17
2019-04-30T22:33:22.736Z,23.95
2019-04-30T22:33:58.997Z,25.70
2019-04-30T22:34:35.147Z,23.87
2019-04-30T22:35:28.190Z,24.12
2019-04-30T22:36:10.858Z,22.48
2019-04-30T22:36:48.698Z,23.98
2019-04-30T22:37:24.575Z,24.32
2019-04-30T22:38:13.923Z,24.82
2019-04-30T22:38:51.768Z,23.02
2019-04-30T22:39:32.483Z,23.57
2019-04-30T22:40:09.332Z,25.57
2019-04-30T22:40:45.544Z,22.65
2019-04-30T22:41:29.676Z,23.55
2019-04-30T22:42:25.678Z,23.85
2019-04-30T22:43:01.825Z,23.83
2019-04-30T22:43:38.280Z,23.05
2019-04-30T22:44:14.617Z,24.50
2019-04-30T22:44:50.646Z,24.55
2019-04-30T22:45:28.363Z,24.20
2019-04-30T22:46:09.765Z,23.18
2019-04-30T22:46:45.934Z,23.85
2019-04-30T22:47:22.026Z,23.83
2019-04-30T22:47:58.908Z,22.27
2019-04-30T22:48:35.093Z,22.58
2019-04-30T22:49:11.126Z,23.45
2019-04-30T22:49:48.138Z,24.52
2019-04-30T22:50:24.171Z,22.85
2019-04-30T22:51:00.294Z,24.18
2019-04-30T22:51:36.397Z,23.12
2019-04-30T22:52:12.880Z,23.30
2019-04-30T22:52:49.070Z,22.20
2019-04-30T22:53:25.101Z,23.20
2019-04-30T22:54:01.160Z,23.18
2019-04-30T22:54:37.202Z,23.50
2019-04-30T22:55:13.235Z,22.62
2019-04-30T22:55:49.320Z,23.75
2019-04-30T22:56:25.572Z,22.95
2019-04-30T22:57:01.924Z,22.25
2019-04-30T22:57:37.972Z,23.98
2019-04-30T22:58:14.021Z,23.67
2019-04-30T22:58:50.025Z,24.30
2019-04-30T22:59:26.058Z,24.18
2019-04-30T23:00:02.203Z,24.27
2019-04-30T23:00:41.760Z,23.57
2019-04-30T23:01:36.026Z,24.25
2019-04-30T23:02:25.722Z,24.92
2019-04-30T23:03:03.482Z,23.10
2019-04-30T23:03:39.507Z,23.90
2019-04-30T23:04:28.900Z,22.65
2019-04-30T23:05:06.779Z,21.77
2019-04-30T23:05:42.866Z,23.95
2019-04-30T23:06:18.956Z,23.52
2019-04-30T23:06:55.000Z,22.10
2019-04-30T23:07:31.101Z,23.70
2019-04-30T23:08:07.122Z,23.15
2019-04-30T23:08:43.168Z,23.32
2019-04-30T23:09:19.509Z,22.73
2019-04-30T23:09:55.543Z,23.57
2019-04-30T23:10:31.561Z,24.82
2019-04-30T23:11:07.585Z,22.73
2019-04-30T23:11:43.625Z,23.75
2019-04-30T23:12:19.681Z,24.57
2019-04-30T23:12:55.792Z,24.10
2019-04-30T23:13:31.927Z,25.08
2019-04-30T23:14:08.383Z,24.72
2019-04-30T23:14:44.718Z,24.52
2019-04-30T23:15:20.805Z,26.30
2019-04-30T23:15:56.823Z,25.68
2019-04-30T23:16:32.857Z,24.55
2019-04-30T23:17:08.902Z,24.18
2019-04-30T23:17:45.983Z,24.07
2019-04-30T23:18:22.442Z,24.45
2019-04-30T23:18:58.597Z,22.52
2019-04-30T23:19:34.632Z,22.55
2019-04-30T23:20:10.921Z,22.22
2019-04-30T23:20:46.944Z,23.00
2019-04-30T23:21:22.983Z,22.17
2019-04-30T23:21:59.012Z,22.42
2019-04-30T23:22:35.264Z,22.87
2019-04-30T23:23:12.928Z,23.30
2019-04-30T23:23:49.006Z,20.75
2019-04-30T23:24:25.102Z,20.72
2019-04-30T23:25:01.167Z,22.20
2019-04-30T23:25:37.252Z,21.82
2019-04-30T23:26:13.378Z,21.50
2019-04-30T23:26:49.631Z,21.60
2019-04-30T23:27:25.966Z,20.80
2019-04-30T23:28:01.982Z,21.05
2019-04-30T23:28:38.079Z,21.27
2019-04-30T23:29:14.207Z,20.52
2019-04-30T23:30:02.525Z,20.05
2019-04-30T23:30:28.052Z,20.20
2019-04-30T23:31:04.399Z,20.55
2019-04-30T23:31:40.561Z,21.17
2019-04-30T23:32:16.586Z,20.40
2019-04-30T23:32:52.675Z,20.17
2019-04-30T23:33:28.711Z,20.90
2019-04-30T23:34:17.226Z,20.52
2019-04-30T23:34:42.510Z,20.32
2019-04-30T23:35:18.556Z,20.62
2019-04-30T23:35:54.904Z,20.40
2019-04-30T23:36:30.946Z,20.75
2019-04-30T23:37:06.992Z,19.77
2019-04-30T23:37:43.191Z,20.95
2019-04-30T23:38:19.217Z,20.27
2019-04-30T23:38:55.253Z,20.15
2019-04-30T23:39:31.387Z,19.75
2019-04-30T23:40:27.350Z,20.88
2019-04-30T23:41:03.481Z,19.00
2019-04-30T23:41:40.506Z,19.55
2019-04-30T23:42:16.578Z,20.15
2019-04-30T23:42:53.456Z,21.05
2019-04-30T23:43:29.569Z,19.17
2019-04-30T23:44:05.613Z,19.50
2019-04-30T23:44:41.960Z,19.65
2019-04-30T23:45:17.997Z,19.17
2019-04-30T23:45:54.127Z,21.02
2019-04-30T23:46:30.154Z,19.82
2019-04-30T23:47:06.168Z,21.82
2019-04-30T23:47:42.192Z,17.95
2019-04-30T23:48:18.338Z,20.15
2019-04-30T23:48:55.448Z,20.02
2019-04-30T23:49:31.487Z,19.90
2019-04-30T23:50:07.500Z,20.77
2019-04-30T23:50:43.590Z,20.95
2019-04-30T23:51:19.675Z,20.12
2019-04-30T23:51:55.706Z,20.40
2019-04-30T23:52:31.779Z,19.60
2019-04-30T23:53:08.131Z,18.85
2019-04-30T23:53:44.166Z,20.70
2019-04-30T23:54:20.207Z,20.48
2019-04-30T23:54:56.237Z,19.87
2019-04-30T23:55:32.279Z,21.12
2019-04-30T23:56:08.309Z,19.85
2019-04-30T23:56:44.503Z,20.08
2019-04-30T23:57:20.855Z,19.75
2019-04-30T23:57:56.958Z,20.37
2019-04-30T23:58:33.001Z,19.55
2019-04-30T23:59:09.042Z,22.22
2019-04-30T23:59:45.060Z,21.73
